createdAt,value
2022-10-01T00:00:20.734Z,14.31
2022-10-01T00:02:56.725Z,14.03
2022-10-01T00:05:25.589Z,13.98
2022-10-01T00:07:52.348Z,14.28
2022-10-01T00:10:19.427Z,14.02
2022-10-01T00:12:51.264Z,14.34
2022-10-01T00:15:21.986Z,13.97
2022-10-01T00:17:48.885Z,13.99
2022-10-01T00:20:15.707Z,14.02
2022-10-01T00:22:42.386Z,14.14
2022-10-01T00:25:11.108Z,14.30
2022-10-01T00:27:42.987Z,13.94
2022-10-01T00:30:13.346Z,13.91
2022-10-01T00:32:41.255Z,14.04
2022-10-01T00:35:12.721Z,13.92
2022-10-01T00:37:39.368Z,13.81
2022-10-01T00:40:06.799Z,13.82
2022-10-01T00:42:33.764Z,13.95
2022-10-01T00:45:03.348Z,13.77
2022-10-01T00:47:44.331Z,13.61
2022-10-01T00:50:26.406Z,13.54
2022-10-01T00:53:07.802Z,13.47
2022-10-01T00:55:37.688Z,13.65
2022-10-01T00:58:05.208Z,13.92
2022-10-01T01:00:40.640Z,13.38
2022-10-01T01:03:10.275Z,13.63
2022-10-01T01:05:36.919Z,13.71
2022-10-01T01:08:04.406Z,13.85
2022-10-01T01:10:40.312Z,13.62
2022-10-01T01:13:31.930Z,13.54
2022-10-01T01:16:22.059Z,14.03
2022-10-01T01:19:07.365Z,14.04
2022-10-01T01:21:53.830Z,13.77
2022-10-01T01:25:11.699Z,14.02
2022-10-01T01:27:42.665Z,14.00
2022-10-01T01:30:16.024Z,13.62
2022-10-01T01:32:53.100Z,13.38
2022-10-01T01:35:32.419Z,13.53
2022-10-01T01:38:05.742Z,13.54
2022-10-01T01:40:36.877Z,13.70
2022-10-01T01:43:09.028Z,13.51
2022-10-01T01:45:40.301Z,13.76
2022-10-01T01:48:10.089Z,13.37
2022-10-01T01:50:51.930Z,13.30
2022-10-01T01:53:20.302Z,13.72
2022-10-01T01:55:49.402Z,13.34
2022-10-01T01:58:20.159Z,13.65
2022-10-01T02:00:52.574Z,13.63
2022-10-01T02:03:22.049Z,13.61
2022-10-01T02:06:10.195Z,13.54
2022-10-01T02:08:46.538Z,13.01
2022-10-01T02:11:39.047Z,13.21
2022-10-01T02:14:24.011Z,13.51
2022-10-01T02:17:01.568Z,13.27
2022-10-01T02:19:34.543Z,13.43
2022-10-01T02:22:22.614Z,13.14
2022-10-01T02:24:59.266Z,13.00
2022-10-01T02:27:44.700Z,13.37
2022-10-01T02:30:15.416Z,13.05
2022-10-01T02:32:45.589Z,12.68
2022-10-01T02:35:16.802Z,12.75
2022-10-01T02:37:45.988Z,13.15
2022-10-01T02:40:16.572Z,12.91
2022-10-01T02:42:51.981Z,12.98
2022-10-01T02:45:24.979Z,12.83
2022-10-01T02:48:08.072Z,12.78
2022-10-01T02:50:42.738Z,12.90
2022-10-01T02:53:17.104Z,12.79
2022-10-01T02:55:46.044Z,12.66
2022-10-01T02:58:12.979Z,12.46
2022-10-01T03:00:39.561Z,12.39
2022-10-01T03:03:08.817Z,12.49
2022-10-01T03:05:35.487Z,12.55
2022-10-01T03:08:02.757Z,12.51
2022-10-01T03:10:29.539Z,12.29
2022-10-01T03:12:56.550Z,12.41
2022-10-01T03:15:24.278Z,12.28
2022-10-01T03:17:51.949Z,12.23
2022-10-01T03:20:18.833Z,12.39
2022-10-01T03:22:46.980Z,12.44
2022-10-01T03:25:15.675Z,12.42
2022-10-01T03:27:42.904Z,12.16
2022-10-01T03:30:10.465Z,12.02
2022-10-01T03:32:37.174Z,12.19
2022-10-01T03:35:04.114Z,11.98
2022-10-01T03:37:30.697Z,12.01
2022-10-01T03:39:57.455Z,12.15
2022-10-01T03:42:23.950Z,12.15
2022-10-01T03:44:50.739Z,11.78
2022-10-01T03:47:17.465Z,12.23
2022-10-01T03:49:44.182Z,11.90
2022-10-01T03:52:10.794Z,11.83
2022-10-01T03:54:38.937Z,11.85
2022-10-01T03:57:06.115Z,12.08
2022-10-01T03:59:32.974Z,11.85
2022-10-01T04:01:59.893Z,12.05
2022-10-01T04:04:29.887Z,11.66
2022-10-01T04:06:56.496Z,12.00
2022-10-01T04:09:24.220Z,11.81
2022-10-01T04:11:50.909Z,11.68
2022-10-01T04:14:18.547Z,11.99
2022-10-01T04:16:45.272Z,11.96
2022-10-01T04:19:11.866Z,12.16
2022-10-01T04:21:39.759Z,11.98
2022-10-01T04:24:06.662Z,11.81
2022-10-01T04:26:33.277Z,11.81
2022-10-01T04:29:00.021Z,11.74
2022-10-01T04:31:26.943Z,12.08
2022-10-01T04:33:56.110Z,11.80
2022-10-01T04:36:24.503Z,11.81
2022-10-01T04:39:00.826Z,11.69
2022-10-01T04:41:30.833Z,11.74
2022-10-01T04:43:59.450Z,11.93
2022-10-01T04:46:26.405Z,11.54
2022-10-01T04:48:56.358Z,11.53
2022-10-01T04:51:23.102Z,11.65
2022-10-01T04:53:49.792Z,11.68
2022-10-01T04:56:17.502Z,11.70
2022-10-01T04:58:44.231Z,11.55
2022-10-01T05:01:10.916Z,11.61
2022-10-01T05:03:37.530Z,11.77
2022-10-01T05:06:04.190Z,11.24
2022-10-01T05:08:31.465Z,11.58
2022-10-01T05:11:00.528Z,11.64
2022-10-01T05:13:30.349Z,11.45
2022-10-01T05:15:57.781Z,11.35
2022-10-01T05:18:26.900Z,11.65
2022-10-01T05:20:59.296Z,11.32
2022-10-01T05:23:26.032Z,11.14
2022-10-01T05:25:55.535Z,11.49
2022-10-01T05:28:35.024Z,11.19
2022-10-01T05:31:04.294Z,11.07
2022-10-01T05:33:31.904Z,11.11
2022-10-01T05:35:59.020Z,11.63
2022-10-01T05:38:26.218Z,11.40
2022-10-01T05:40:52.789Z,11.58
2022-10-01T05:43:19.557Z,11.49
2022-10-01T05:45:46.317Z,11.27
2022-10-01T05:48:13.306Z,11.16
2022-10-01T05:50:44.269Z,11.12
2022-10-01T05:53:12.154Z,11.05
2022-10-01T05:55:39.837Z,10.95
2022-10-01T05:58:12.709Z,10.95
2022-10-01T06:00:47.094Z,10.96
2022-10-01T06:03:15.370Z,10.69
2022-10-01T06:05:46.715Z,11.04
2022-10-01T06:08:15.912Z,11.21
2022-10-01T06:13:35.869Z,11.04
2022-10-01T06:16:12.658Z,10.87
2022-10-01T06:18:49.154Z,11.01
2022-10-01T06:21:16.090Z,11.03
2022-10-01T06:23:45.045Z,10.70
2022-10-01T06:26:22.395Z,10.66
2022-10-01T06:28:55.929Z,11.06
2022-10-01T06:31:25.552Z,10.82
2022-10-01T06:34:00.940Z,11.09
2022-10-01T06:36:30.546Z,10.91
2022-10-01T06:39:00.706Z,10.95
2022-10-01T06:41:30.434Z,10.99
2022-10-01T06:44:12.316Z,11.00
2022-10-01T06:46:41.669Z,11.00
2022-10-01T06:52:39.860Z,10.72
2022-10-01T06:55:13.112Z,11.08
2022-10-01T06:57:42.636Z,11.45
2022-10-01T07:00:14.325Z,11.19
2022-10-01T07:02:43.672Z,11.16
2022-10-01T07:05:12.278Z,11.12
2022-10-01T07:07:41.956Z,11.03
2022-10-01T07:10:10.280Z,11.06
2022-10-01T07:13:00.059Z,11.19
2022-10-01T07:16:06.739Z,11.10
2022-10-01T07:18:55.754Z,11.33
2022-10-01T07:21:37.771Z,11.18
2022-10-01T07:24:35.069Z,11.29
2022-10-01T07:31:16.981Z,11.72
2022-10-01T07:33:40.806Z,11.72
2022-10-01T07:43:54.777Z,12.05
2022-10-01T07:47:24.150Z,12.27
2022-10-01T07:49:35.140Z,12.44
2022-10-01T07:52:12.403Z,12.38
2022-10-01T07:54:56.125Z,12.79
2022-10-01T07:57:28.873Z,12.75
2022-10-01T08:00:24.186Z,13.37
2022-10-01T08:02:56.887Z,12.91
2022-10-01T08:06:17.903Z,13.06
2022-10-01T08:08:50.769Z,13.43
2022-10-01T08:11:26.105Z,13.55
2022-10-01T08:14:00.180Z,13.50
2022-10-01T08:16:33.640Z,13.50
2022-10-01T08:19:28.749Z,13.76
2022-10-01T08:22:14.562Z,13.78
2022-10-01T08:24:41.284Z,14.01
2022-10-01T08:27:07.970Z,14.16
2022-10-01T08:29:47.970Z,13.72
2022-10-01T08:32:14.775Z,13.98
2022-10-01T08:34:43.552Z,13.93
2022-10-01T08:37:18.485Z,13.83
2022-10-01T08:39:52.511Z,14.17
2022-10-01T08:43:14.053Z,14.53
2022-10-01T08:45:59.045Z,14.57
2022-10-01T08:48:40.880Z,14.73
2022-10-01T08:51:24.223Z,14.51
2022-10-01T08:53:59.531Z,14.54
2022-10-01T08:56:39.730Z,14.58
2022-10-01T08:59:27.517Z,14.56
2022-10-01T09:02:08.168Z,14.24
2022-10-01T09:04:44.372Z,14.22
2022-10-01T09:07:58.977Z,14.77
2022-10-01T09:10:57.467Z,15.04
2022-10-01T09:13:52.972Z,14.99
2022-10-01T09:16:29.596Z,15.35
2022-10-01T09:19:20.053Z,15.44
2022-10-01T09:21:52.785Z,15.04
2022-10-01T09:24:47.986Z,15.71
2022-10-01T09:27:23.434Z,15.60
2022-10-01T09:29:56.442Z,15.60
2022-10-01T09:32:27.762Z,15.90
2022-10-01T09:34:54.826Z,15.78
2022-10-01T09:38:08.093Z,16.08
2022-10-01T09:40:50.174Z,16.14
2022-10-01T09:43:20.086Z,16.45
2022-10-01T09:45:50.036Z,16.21
2022-10-01T09:49:02.335Z,16.69
2022-10-01T09:51:45.770Z,16.25
2022-10-01T09:54:37.709Z,16.14
2022-10-01T09:57:19.166Z,16.42
2022-10-01T09:59:57.271Z,16.41
2022-10-01T10:02:32.235Z,16.61
2022-10-01T10:05:10.556Z,16.88
2022-10-01T10:08:03.291Z,16.91
2022-10-01T10:11:12.688Z,16.36
2022-10-01T10:13:45.446Z,16.94
2022-10-01T10:16:36.711Z,16.81
2022-10-01T10:19:10.408Z,17.32
2022-10-01T10:21:42.360Z,17.17
2022-10-01T10:24:24.292Z,16.75
2022-10-01T10:27:06.427Z,16.99
2022-10-01T10:29:40.486Z,16.98
2022-10-01T10:32:18.028Z,17.00
2022-10-01T10:35:05.591Z,17.19
2022-10-01T10:37:38.677Z,17.70
2022-10-01T10:40:11.157Z,18.04
2022-10-01T10:43:07.119Z,18.06
2022-10-01T10:45:40.445Z,18.14
2022-10-01T10:48:16.912Z,18.12
2022-10-01T10:50:46.916Z,17.64
2022-10-01T10:53:49.089Z,18.01
2022-10-01T10:56:23.909Z,17.89
2022-10-01T10:58:54.572Z,18.30
2022-10-01T11:01:29.787Z,18.44
2022-10-01T11:04:00.050Z,18.28
2022-10-01T11:06:28.635Z,18.28
2022-10-01T11:09:08.230Z,18.68
2022-10-01T11:11:44.222Z,18.61
2022-10-01T11:14:38.965Z,18.54
2022-10-01T11:17:21.095Z,18.41
2022-10-01T11:19:56.747Z,18.29
2022-10-01T11:22:44.330Z,18.11
2022-10-01T11:25:22.528Z,17.61
2022-10-01T11:28:09.788Z,17.97
2022-10-01T11:30:54.316Z,17.94
2022-10-01T11:33:33.030Z,17.97
2022-10-01T11:36:11.740Z,18.01
2022-10-01T11:39:03.079Z,18.02
2022-10-01T11:41:50.267Z,18.03
2022-10-01T11:44:24.679Z,17.93
2022-10-01T11:47:03.089Z,18.15
2022-10-01T11:49:42.573Z,18.19
2022-10-01T11:52:21.186Z,18.20
2022-10-01T11:55:22.870Z,18.17
2022-10-01T11:58:14.743Z,18.11
2022-10-01T12:00:52.326Z,17.98
2022-10-01T12:03:25.309Z,17.86
2022-10-01T12:05:53.536Z,17.80
2022-10-01T12:08:29.645Z,17.50
2022-10-01T12:11:09.818Z,17.97
2022-10-01T12:13:41.235Z,18.03
2022-10-01T12:16:31.574Z,18.10
2022-10-01T12:19:14.776Z,18.22
2022-10-01T12:21:46.856Z,18.46
2022-10-01T12:24:18.671Z,18.65
2022-10-01T12:26:57.910Z,18.79
2022-10-01T12:29:33.319Z,18.88
2022-10-01T12:31:59.751Z,19.23
2022-10-01T12:34:54.340Z,19.17
2022-10-01T12:37:40.050Z,19.18
2022-10-01T12:40:21.915Z,19.05
2022-10-01T12:43:04.267Z,19.08
2022-10-01T12:46:02.892Z,19.03
2022-10-01T12:48:49.291Z,19.02
2022-10-01T12:51:21.769Z,19.04
2022-10-01T12:54:21.030Z,19.18
2022-10-01T12:57:17.346Z,19.18
2022-10-01T13:00:10.668Z,19.11
2022-10-01T13:02:53.111Z,19.08
2022-10-01T13:05:50.710Z,19.06
2022-10-01T13:08:17.291Z,19.10
2022-10-01T13:10:50.083Z,19.12
2022-10-01T13:13:22.950Z,18.81
2022-10-01T13:15:58.741Z,18.80
2022-10-01T13:18:31.430Z,18.98
2022-10-01T13:21:30.423Z,18.95
2022-10-01T13:24:00.865Z,18.80
2022-10-01T13:26:43.247Z,18.82
2022-10-01T13:29:35.042Z,18.90
2022-10-01T13:32:04.451Z,18.96
2022-10-01T13:34:39.981Z,19.00
2022-10-01T13:37:11.843Z,18.90
2022-10-01T13:39:42.055Z,19.03
2022-10-01T13:42:23.113Z,19.17
2022-10-01T13:45:24.535Z,19.25
2022-10-01T13:47:51.308Z,19.26
2022-10-01T13:50:24.338Z,19.19
2022-10-01T13:52:52.449Z,19.34
2022-10-01T13:55:30.574Z,19.42
2022-10-01T13:58:20.494Z,19.44
2022-10-01T14:00:56.319Z,19.41
2022-10-01T14:03:50.669Z,19.51
2022-10-01T14:06:24.447Z,19.46
2022-10-01T14:09:13.154Z,19.53
2022-10-01T14:12:03.190Z,19.43
2022-10-01T14:14:54.024Z,19.33
2022-10-01T14:17:31.589Z,19.37
2022-10-01T14:20:00.548Z,19.25
2022-10-01T14:23:01.745Z,19.39
2022-10-01T14:26:01.958Z,19.49
2022-10-01T14:28:34.570Z,19.61
2022-10-01T14:31:07.157Z,19.72
2022-10-01T14:34:06.440Z,19.86
2022-10-01T14:36:42.679Z,19.95
2022-10-01T14:39:27.848Z,20.12
2022-10-01T14:41:56.798Z,19.96
2022-10-01T14:44:29.558Z,19.87
2022-10-01T14:46:57.979Z,19.83
2022-10-01T14:49:32.356Z,19.85
2022-10-01T14:52:03.840Z,19.78
2022-10-01T14:54:37.336Z,19.95
2022-10-01T14:57:15.101Z,19.93
2022-10-01T14:59:42.080Z,19.92
2022-10-01T15:02:20.817Z,20.30
2022-10-01T15:04:50.764Z,20.51
2022-10-01T15:07:17.840Z,20.72
2022-10-01T15:09:45.486Z,20.94
2022-10-01T15:12:13.644Z,20.86
2022-10-01T15:14:42.520Z,21.16
2022-10-01T15:17:18.210Z,21.16
2022-10-01T15:19:47.404Z,20.94
2022-10-01T15:22:16.307Z,20.94
2022-10-01T15:24:49.035Z,20.76
2022-10-01T15:27:19.106Z,20.66
2022-10-01T15:29:46.614Z,20.51
2022-10-01T15:32:16.598Z,20.34
2022-10-01T15:34:48.528Z,20.18
2022-10-01T15:37:32.549Z,20.08
2022-10-01T15:40:00.839Z,19.94
2022-10-01T15:42:31.532Z,19.74
2022-10-01T15:45:07.106Z,19.73
2022-10-01T15:47:38.577Z,19.64
2022-10-01T15:50:15.232Z,19.57
2022-10-01T15:52:51.123Z,19.47
2022-10-01T15:55:21.677Z,19.20
2022-10-01T15:58:06.737Z,19.30
2022-10-01T16:00:52.746Z,19.19
2022-10-01T16:03:27.347Z,19.07
2022-10-01T16:05:55.294Z,19.00
2022-10-01T16:08:25.660Z,19.04
2022-10-01T16:11:18.692Z,18.95
2022-10-01T16:13:48.895Z,18.90
2022-10-01T16:16:25.043Z,18.83
2022-10-01T16:19:20.216Z,18.63
2022-10-01T16:22:19.203Z,18.72
2022-10-01T16:25:26.166Z,18.62
2022-10-01T16:28:03.956Z,18.54
2022-10-01T16:30:32.710Z,18.34
2022-10-01T16:33:02.441Z,18.24
2022-10-01T16:35:32.635Z,18.25
2022-10-01T16:37:59.474Z,18.22
2022-10-01T16:40:28.295Z,18.14
2022-10-01T16:42:55.526Z,18.00
2022-10-01T16:45:27.716Z,17.93
2022-10-01T16:47:56.757Z,17.84
2022-10-01T16:50:24.190Z,17.53
2022-10-01T16:52:56.970Z,17.68
2022-10-01T16:55:31.384Z,17.62
2022-10-01T16:57:58.005Z,17.46
2022-10-01T17:00:26.678Z,17.49
2022-10-01T17:02:54.699Z,17.42
2022-10-01T17:05:32.960Z,17.34
2022-10-01T17:08:01.179Z,17.36
2022-10-01T17:10:33.731Z,17.30
2022-10-01T17:13:00.314Z,17.08
2022-10-01T17:15:28.092Z,17.11
2022-10-01T17:17:55.775Z,17.25
2022-10-01T17:20:23.548Z,17.22
2022-10-01T17:22:50.609Z,16.90
2022-10-01T17:25:20.077Z,17.11
2022-10-01T17:27:46.941Z,16.89
2022-10-01T17:30:14.331Z,16.94
2022-10-01T17:32:43.039Z,16.97
2022-10-01T17:35:14.701Z,16.85
2022-10-01T17:37:41.986Z,16.67
2022-10-01T17:40:09.821Z,16.50
2022-10-01T17:42:36.709Z,16.75
2022-10-01T17:45:06.534Z,16.71
2022-10-01T17:47:33.823Z,16.65
2022-10-01T17:50:00.464Z,16.57
2022-10-01T17:52:26.976Z,16.38
2022-10-01T17:54:53.535Z,16.49
2022-10-01T17:57:20.165Z,16.32
2022-10-01T17:59:46.708Z,16.38
2022-10-01T18:02:36.505Z,16.41
2022-10-01T18:05:01.192Z,16.20
2022-10-01T18:07:27.765Z,16.33
2022-10-01T18:09:54.465Z,16.08
2022-10-01T18:12:21.015Z,16.11
2022-10-01T18:14:48.700Z,16.00
2022-10-01T18:17:15.545Z,16.07
2022-10-01T18:19:57.590Z,16.12
2022-10-01T18:22:24.660Z,16.07
2022-10-01T18:24:51.190Z,15.91
2022-10-01T18:27:18.805Z,15.58
2022-10-01T18:29:45.396Z,15.87
2022-10-01T18:32:21.700Z,15.76
2022-10-01T18:34:58.886Z,15.55
2022-10-01T18:37:37.571Z,15.75
2022-10-01T18:40:12.429Z,15.72
2022-10-01T18:42:51.328Z,15.67
2022-10-01T18:45:40.775Z,15.40
2022-10-01T18:48:13.397Z,15.63
2022-10-01T18:50:58.202Z,15.60
2022-10-01T18:53:34.624Z,15.58
2022-10-01T18:56:20.929Z,15.55
2022-10-01T18:59:05.793Z,15.53
2022-10-01T19:02:09.872Z,15.52
2022-10-01T19:05:05.729Z,15.49
2022-10-01T19:08:01.194Z,15.46
2022-10-01T19:10:37.572Z,15.48
2022-10-01T19:13:17.952Z,15.42
2022-10-01T19:15:54.395Z,15.26
2022-10-01T19:18:39.714Z,15.45
2022-10-01T19:21:21.924Z,15.16
2022-10-01T19:24:10.354Z,15.39
2022-10-01T19:27:04.573Z,15.36
2022-10-01T19:29:55.102Z,15.12
2022-10-01T19:32:25.715Z,15.29
2022-10-01T19:35:00.595Z,15.28
2022-10-01T19:37:41.154Z,15.11
2022-10-01T19:40:30.911Z,15.07
2022-10-01T19:43:16.559Z,15.11
2022-10-01T19:46:08.956Z,15.23
2022-10-01T19:48:51.002Z,15.23
2022-10-01T19:51:23.417Z,15.25
2022-10-01T19:53:59.953Z,15.16
2022-10-01T19:56:32.353Z,15.08
2022-10-01T19:59:10.624Z,15.09
2022-10-01T20:01:41.858Z,15.27
2022-10-01T20:04:18.479Z,15.09
2022-10-01T20:06:46.866Z,15.30
2022-10-01T20:09:23.242Z,15.28
2022-10-01T20:12:04.585Z,15.15
2022-10-01T20:15:00.188Z,15.29
2022-10-01T20:17:51.087Z,15.25
2022-10-01T20:20:26.761Z,15.29
2022-10-01T20:23:36.801Z,15.24
2022-10-01T20:26:06.675Z,15.29
2022-10-01T20:29:06.016Z,15.13
2022-10-01T20:31:57.308Z,15.04
2022-10-01T20:35:01.999Z,15.23
2022-10-01T20:38:11.110Z,15.22
2022-10-01T20:40:44.163Z,15.08
2022-10-01T20:43:19.789Z,15.19
2022-10-01T20:45:50.005Z,15.19
2022-10-01T20:48:27.635Z,14.91
2022-10-01T20:51:01.652Z,14.75
2022-10-01T20:53:54.042Z,15.12
2022-10-01T20:56:40.335Z,15.10
2022-10-01T20:59:25.393Z,15.14
2022-10-01T21:02:13.613Z,14.76
2022-10-01T21:04:48.675Z,15.06
2022-10-01T21:07:50.021Z,15.02
2022-10-01T21:10:28.919Z,15.07
2022-10-01T21:13:14.315Z,15.11
2022-10-01T21:16:25.057Z,15.07
2022-10-01T21:19:17.460Z,15.06
2022-10-01T21:22:23.166Z,15.02
2022-10-01T21:24:49.650Z,15.11
2022-10-01T21:27:24.017Z,15.11
2022-10-01T21:30:14.210Z,15.10
2022-10-01T21:33:00.080Z,15.11
2022-10-01T21:35:43.888Z,15.09
2022-10-01T21:38:29.271Z,15.13
2022-10-01T21:41:38.590Z,15.09
2022-10-01T21:44:41.710Z,15.12
2022-10-01T21:47:22.427Z,15.08
2022-10-01T21:49:54.919Z,15.13
2022-10-01T21:52:21.404Z,15.13
2022-10-01T21:55:14.007Z,15.10
2022-10-01T21:57:51.479Z,15.11
2022-10-01T22:00:26.220Z,15.02
2022-10-01T22:02:53.197Z,15.13
2022-10-01T22:05:34.298Z,14.96
2022-10-01T22:08:16.003Z,15.11
2022-10-01T22:10:46.456Z,15.12
2022-10-01T22:13:22.429Z,15.09
2022-10-01T22:15:53.453Z,15.12
2022-10-01T22:18:45.846Z,15.11
2022-10-01T22:21:19.858Z,15.03
2022-10-01T22:23:52.666Z,15.06
2022-10-01T22:26:23.703Z,14.96
2022-10-01T22:28:53.920Z,14.85
2022-10-01T22:31:27.743Z,14.89
2022-10-01T22:34:10.865Z,14.80
2022-10-01T22:37:17.086Z,14.77
2022-10-01T22:39:55.604Z,14.68
2022-10-01T22:42:46.688Z,14.65
2022-10-01T22:45:15.782Z,14.61
2022-10-01T22:48:09.400Z,14.46
2022-10-01T22:50:49.447Z,14.48
2022-10-01T22:53:34.090Z,14.42
2022-10-01T22:56:00.654Z,14.14
2022-10-01T22:58:35.797Z,14.37
2022-10-01T23:01:40.012Z,14.36
2022-10-01T23:04:18.578Z,14.33
2022-10-01T23:07:01.438Z,14.22
2022-10-01T23:10:08.011Z,14.21
2022-10-01T23:12:40.935Z,14.20
2022-10-01T23:15:19.049Z,14.15
2022-10-01T23:18:04.699Z,14.05
2022-10-01T23:20:43.677Z,13.86
2022-10-01T23:23:22.400Z,14.06
2022-10-01T23:26:31.329Z,14.02
2022-10-01T23:29:06.843Z,14.00
2022-10-01T23:32:11.394Z,13.79
2022-10-01T23:34:58.146Z,13.92
2022-10-01T23:37:51.770Z,13.95
2022-10-01T23:40:21.144Z,13.80
2022-10-01T23:42:56.730Z,13.64
2022-10-01T23:45:34.946Z,13.87
2022-10-01T23:48:13.241Z,13.72
2022-10-01T23:50:52.102Z,13.88
2022-10-01T23:53:28.263Z,13.83
2022-10-01T23:56:26.341Z,13.85
2022-10-01T23:59:03.291Z,13.74
